航空気象通報

ウインドサーファーのための航空気象通報による風予報です。

4/30-5/2の航空気象通報

2018年04月30日 21時58分32秒 | TAF
羽田空港
TAF RJTT 301105Z 3012/0118 22010KT 9999 FEW020
BECMG 3013/3015 34008KT
BECMG 0100/0103 12008KT
BECMG 0103/0106 20014KT
日本時間30日21-22時:220度から10ノットの風
22-24時:風が変化
1日00-09時:340度から8ノットの風
09-12時:風が変化
12時:120度から8ノットの風
12-15時:風が変化
15時-2日03時:200度から14ノットの風


静岡空港
TAF RJNS 301106Z 3012/0118 26012KT 9999 FEW020
BECMG 3019/3021 33004KT
BECMG 0100/0103 16008KT
BECMG 0106/0109 24006KT
日本時間30日21時-1日04時:260度から12ノットの風
04-06時:風が変化
06-09時:330度から4ノットの風
09-12時:風が変化
12-15時:160度から8ノットの風
15-18時:風が変化
18時-2日03時:240度から6ノットの風


福岡空港
TAF RJFF 301106Z 3012/0118 14005KT 9999 FEW030
TEMPO 0112/0118 3000 SHRA BR
日本時間30日21時-2日03時:140度から5ノットの風

但し、1日21時-2日03時の間:時々

那覇空港
TAF ROAH 301105Z 3012/0118 15005KT 9999 FEW020 SCT035
日本時間30日21時-2日03時:150度から5ノットの風


石垣空港
TAF ROIG 301109Z 3012/0118 17006KT 9999 FEW010 SCT020
日本時間30日21時-2日03時:170度から6ノットの風


マウイのカフルイ空港
PHOG 301120Z 3012/0112 VRB04KT P6SM SCT025 BKN050
FM302000 03009KT P6SM SCT030 BKN050
FM010600 VRB04KT P6SM SCT025 SCT050 BKN200 AMD LTD TO VIS AND WIND TIL 301600
ハワイ時間30日02-10時:風向不定4ノットの風
10-20時:030度から9ノットの風
20時-1日02時:風向不定4ノットの風


サイパン空港
PGSN 301120Z 3012/0112 08011KT P6SM FEW020 SCT040
FM302300 08012G23KT P6SM VCSH FEW023 SCT040
FM010800 07011KT P6SM FEW020 SCT040
マリアナ時間30日22時-1日09時:080度から11ノットの風
09-18時:080度から12ノット、突風23ノット
18-22時:070度から11ノットの風

コメント

4/28-4/30の航空気象通報

2018年04月29日 00時30分04秒 | TAF
羽田空港
TAF RJTT 281105Z 2812/2918 21008KT 9999 FEW020
BECMG 2900/2903 20018KT
TEMPO 2903/2909 20022G32KT
BECMG 2912/2915 20008KT
日本時間28日21時-29日09時:210度から8ノットの風
09-12時:風が変化
12-21時:200度から18ノットの風
但し、29日12-18時の間:時々200度から22ノット、突風32ノット
21-24時:風が変化
30日00-03時:200度から8ノットの風


静岡空港
TAF RJNS 281106Z 2812/2918 32004KT 9999 FEW010
BECMG 2900/2903 20010KT
BECMG 2906/2909 23006KT
日本時間28日21時-29日09時:320度から4ノットの風
09-12時:風が変化
12-15時:200度から10ノットの風
15-18時:風が変化
18時-30日03時:230度から6ノットの風


福岡空港
TAF RJFF 281108Z 2812/2918 15005KT CAVOK
BECMG 2822/2900 32010KT
BECMG 2909/2912 15005KT
日本時間28日21時-29日07時:150度から5ノットの風
07-09時:風が変化
09-18時:320度から10ノットの風
18-21時:風が変化
21時-30日03時:150度から5ノットの風


那覇空港
TAF ROAH 281106Z 2812/2918 08006KT 9999 FEW030
BECMG 2909/2912 12004KT
日本時間28日21時-29日18時:080度から6ノットの風
18-21時:風が変化
21時-30日03時:120度から4ノットの風


石垣空港
TAF ROIG 281108Z 2812/2918 08006KT 9999 FEW020
BECMG 2915/2918 16004KT
日本時間28日21時-29日24時:030度から6ノットの風
30日00-03時:風が変化
03時:160度から4ノットの風


マウイのカフルイ空港
PHOG 281409Z 2814/2912 VRB03KT 5SM -RA SCT010 BKN023 OVC045
TEMPO 2814/2817 2SM -RA BR BKN012 OVC025
FM281800 34008KT P6SM VCSH SCT017 BKN025 OVC060
FM282100 01015KT P6SM VCSH SCT022 BKN040 AMD LTD TO VIS AND WIND TIL 281600
ハワイ時間28日02-08時:風向不定3ノットの風

08-11時:340度から8ノットの風
11時-29日02時:010度から15ノットの風


サイパン空港
PGSN 281137Z 2812/2912 08011KT P6SM FEW020 SCT050
FM282300 07012G20KT P6SM FEW020 SCT050
FM290800 07011KT P6SM FEW020 SCT050
マリアナ時間28日22時-29日08時:080度から11ノットの風
08-18時:070度から12ノット、突風20ノット
18-22時:070度から11ノットの風

コメント

4/26-4/28の航空気象通報

2018年04月27日 23時28分55秒 | TAF
羽田空港
TAF RJTT 271105Z 2712/2818 32004KT 9999 FEW020
BECMG 2714/2716 34016KT
BECMG 2800/2803 08010KT
BECMG 2803/2806 16014KT
日本時間27日21-23時:320度から4ノットの風
23時-28日01時:風が変化
01-09時:340度から16ノットの風
09-12時:風が変化
12時:080度から10ノットの風
12-15時:風が変化
15時-29日03時:160度から14ノットの風


静岡空港
TAF RJNS 271106Z 2712/2818 27012KT 9999 FEW025
BECMG 2721/2723 07005KT
BECMG 2803/2806 15010KT
BECMG 2809/2812 33004KT
日本時間27日21時-28日06時:270度から12ノットの風
06-08時:風が変化
08-12時:070度から5ノットの風
12-15時:風が変化
15-18時:150度から10ノットの風
18-21時:風が変化
21時-29日03時:330度から4ノットの風


福岡空港
TAF RJFF 271105Z 2712/2818 36008KT 9999 FEW025
BECMG 2712/2714 15003KT
BECMG 2800/2803 32010KT
BECMG 2809/2812 15004KT
日本時間27日21時:360度から8ノットの風
21-23時:風が変化
23時-28日09時:150度から3ノットの風
09-12時:風が変化
12-18時:320度から10ノットの風
18-21時:風が変化
21時-29日03時:150度から4ノットの風


那覇空港
TAF ROAH 271105Z 2712/2818 02006KT 9999 FEW030
日本時間27日21時-29日03時:020度から6ノットの風


石垣空港
TAF ROIG 271106Z 2712/2818 04010KT 9999 FEW030
日本時間27日21時-29日03時:040度から10ノットの風


マウイのカフルイ空港
PHOG 271125Z 2712/2812 08006KT P6SM VCSH SCT025 BKN035
FM272000 23008KT P6SM VCSH SCT025 BKN035
FM280400 31007KT P6SM SCT020 SCT045 AMD LTD TO VIS AND WIND TIL 271600
ハワイ時間27日02-10時:080度から6ノットの風
10-18時:230度から8ノットの風

18時-28日02時:310度から7ノットの風


サイパン空港
PGSN 271135Z 2712/2812 10014KT P6SM VCSH FEW015 SCT035
TEMPO 2712/2716 BKN025
FM271600 09010KT P6SM VCSH FEW015 SCT025
TEMPO 2716/2720 5SM SHRA BKN025
マリアナ時間27日22時-28日02時:100度から14ノットの風
02-22時:090度から10ノットの風

但し、27日22時-28日02時の間:時々
但し、28日02-06時の間:時々
コメント

4/26-4/28の航空気象通報

2018年04月27日 00時05分19秒 | TAF
羽田空港
TAF RJTT 261105Z 2612/2718 20008KT 9999 FEW020
BECMG 2619/2621 05004KT
BECMG 2700/2703 10008KT
BECMG 2703/2706 18012KT
BECMG 2712/2715 02014KT
日本時間26日21時-27日04時:200度から8ノットの風
04-06時:風が変化
06-09時:050度から4ノットの風
09-12時:風が変化
12時:100度から8ノットの風
12-15時:風が変化
15-21時の間:180度から12ノットの風
21-24時:風が変化
28日00-03時:020度から14ノットの風


静岡空港
TAF RJNS 261106Z 2612/2718 35004KT 9999 FEW010 BKN020
BECMG 2700/2703 14006KT
BECMG 2703/2706 24010KT
日本時間26日21時-27日09時:350度から4ノットの風
09-12時:風が変化
12時:140度から6ノットの風
12-15時:風が変化
15時-28日03時:240度から10ノットの風


福岡空港
TAF RJFF 261109Z 2612/2718 15004KT CAVOK
BECMG 2700/2703 30010KT
BECMG 2712/2715 15004KT
日本時間26日21時-27日09時:150度から4ノットの風
09-12時:風が変化
12-21時:300度から10ノットの風
21-24時:風が変化
28日00-03時:150度から4ノットの風


那覇空港
TAF ROAH 261105Z 2612/2718 35007KT 9999 FEW025
日本時間26日21時-28日03時:350度から7ノットの風


石垣空港
TAF ROIG 261109Z 2612/2718 36004KT 9999 FEW020
日本時間26日21時-28日03時:360度から4ノットの風


マウイのカフルイ空港
PHOG 261253Z 2613/2712 05010KT P6SM VCSH SCT025 BKN045
FM270400 07010KT P6SM FEW025 SCT045 AMD LTD TO VIS AND WIND TIL 261600
ハワイ時間26日02-18時:050度から10ノットの風
18時-27日02時:070度から10ノットの風


サイパン空港
TAF COR PGSN 261201Z 2612/2712 08015KT P6SM SCT015 SCT025
TEMPO 2616/2620 5SM SHRA BKN025
マリアナ時間26日22時-27日22時:080度から15ノットの風

但し、27日02-06時の間:時々
コメント

4/25-4/27の航空気象通報

2018年04月25日 23時36分27秒 | TAF
羽田空港
TAF RJTT 251113Z 2512/2618 05008KT 9999 FEW010 BKN020
BECMG 2512/2514 35010KT
TEMPO 2520/2523 35020G30KT
BECMG 2606/2609 14012KT
日本時間25日21時:050度から8ノットの風
21-23時:風が変化
23時-26日15時:350度から10ノットの風
但し、26日05-08時の間:350度から20ノット、突風30ノット
15-18時:風が変化
18時-27日03時:140度から12ノットの風


静岡空港
TAF RJNS 251105Z 2512/2618 26016KT 9999 FEW030
TEMPO 2512/2515 26020G30KT
BECMG 2520/2522 28006KT
BECMG 2600/2603 14010KT
BECMG 2609/2612 34004KT
日本時間25日21時-26日05時:260度から16ノットの風
但し、25日21-24時の間:時々260度から20ノット、突風30ノット
26日05-07時:風が変化
07-09時:280度から6ノットの風
09-12時:風が変化
12-18時:140度から10ノットの風
18-21時:風が変化
21時-27日03時:340度から4ノットの風


福岡空港
TAF RJFF 251109Z 2512/2618 36007KT 9999 FEW020
BECMG 2513/2515 15005KT
BECMG 2600/2603 32011KT
BECMG 2612/2615 15005KT
日本時間25日21-22時:360度から7ノットの風
22-24時:風が変化
26日00-09時:150度から5ノットの風
09-12時:風が変化
12-21時:320度から11ノットの風
21-24時:風が変化
27日00-03時:150度から5ノットの風


那覇空港
TAF ROAH 251107Z 2512/2618 33010KT 9999 FEW015 BKN030
日本時間25日21時-27日03時:330度から10ノットの風


石垣空港
TAF ROIG 251113Z 2512/2618 01006KT 9999 FEW020 BKN030
日本時間25日21時-27日03時:010度から6ノットの風


マウイのカフルイ空港
PHOG 251120Z 2512/2612 05010KT P6SM FEW025 SCT050
FM251800 05013G20KT P6SM FEW025 SCT050
FM252100 05018G26KT P6SM FEW025 SCT050
FM260500 05009G14KT P6SM FEW025 SCT045 AMD LTD TO VIS AND WIND TIL 251600
ハワイ時間25日02-08時:050度から10ノットの風
08-11時:050度から13ノット、突風20ノット
11-19時:050度から18ノット、突風26ノット
19時-26日02時:050度から9ノット、突風14ノット


サイパン空港
TAF COR PGSN 251158Z 2512/2612 09015G25KT P6SM VCSH FEW012 SCT025 BKN035
TEMPO 2515/2519 4SM SHRA OVC025
マリアナ時間25日22時-26日22時:090度から15ノット、突風25ノット

但し、26日01-05時の間:時々
コメント